sensor_id;sensor_type;location;lat;lon;timestamp;pressure;altitude;pressure_sealevel;temperature;humidity
4449;BME280;2237;51.870;6.160;2023-07-30T00:00:30;100765.28;;;18.68;100.00
4449;BME280;2237;51.870;6.160;2023-07-30T00:02:57;100763.06;;;18.60;100.00
4449;BME280;2237;51.870;6.160;2023-07-30T00:05:23;100761.63;;;18.55;100.00
4449;BME280;2237;51.870;6.160;2023-07-30T00:07:50;100758.16;;;18.54;100.00
4449;BME280;2237;51.870;6.160;2023-07-30T00:10:16;100754.44;;;18.41;100.00
4449;BME280;2237;51.870;6.160;2023-07-30T00:12:43;100757.38;;;18.52;100.00
4449;BME280;2237;51.870;6.160;2023-07-30T00:15:10;100757.31;;;18.54;100.00
4449;BME280;2237;51.870;6.160;2023-07-30T00:17:36;100759.47;;;18.46;100.00
4449;BME280;2237;51.870;6.160;2023-07-30T00:20:03;100753.53;;;18.42;100.00
4449;BME280;2237;51.870;6.160;2023-07-30T00:22:29;100748.09;;;18.45;100.00
4449;BME280;2237;51.870;6.160;2023-07-30T00:24:56;100754.19;;;18.46;100.00
4449;BME280;2237;51.870;6.160;2023-07-30T00:27:22;100754.03;;;18.33;100.00
4449;BME280;2237;51.870;6.160;2023-07-30T00:29:49;100759.47;;;18.30;100.00
4449;BME280;2237;51.870;6.160;2023-07-30T00:32:15;100753.63;;;18.25;100.00
4449;BME280;2237;51.870;6.160;2023-07-30T00:34:43;100751.22;;;18.21;100.00
4449;BME280;2237;51.870;6.160;2023-07-30T00:37:10;100760.84;;;18.22;100.00
4449;BME280;2237;51.870;6.160;2023-07-30T00:39:36;100756.09;;;18.28;100.00
4449;BME280;2237;51.870;6.160;2023-07-30T00:42:03;100757.25;;;18.23;100.00
4449;BME280;2237;51.870;6.160;2023-07-30T00:44:29;100761.34;;;18.28;100.00
4449;BME280;2237;51.870;6.160;2023-07-30T00:46:56;100754.19;;;18.30;100.00
4449;BME280;2237;51.870;6.160;2023-07-30T00:49:22;100761.00;;;18.34;100.00
4449;BME280;2237;51.870;6.160;2023-07-30T00:51:49;100766.09;;;18.37;100.00
4449;BME280;2237;51.870;6.160;2023-07-30T00:54:15;100763.81;;;18.31;100.00
4449;BME280;2237;51.870;6.160;2023-07-30T00:56:47;100768.31;;;18.14;100.00
4449;BME280;2237;51.870;6.160;2023-07-30T00:59:16;100767.28;;;18.16;100.00
4449;BME280;2237;51.870;6.160;2023-07-30T01:01:44;100770.69;;;18.18;100.00
4449;BME280;2237;51.870;6.160;2023-07-30T01:04:12;100774.25;;;18.17;100.00
4449;BME280;2237;51.870;6.160;2023-07-30T01:06:38;100768.22;;;18.15;100.00
4449;BME280;2237;51.870;6.160;2023-07-30T01:09:05;100767.63;;;18.10;100.00
4449;BME280;2237;51.870;6.160;2023-07-30T01:11:32;100765.06;;;17.93;100.00
4449;BME280;2237;51.870;6.160;2023-07-30T01:13:59;100769.47;;;17.92;100.00
4449;BME280;2237;51.870;6.160;2023-07-30T01:16:25;100771.56;;;17.86;100.00
4449;BME280;2237;51.870;6.160;2023-07-30T01:18:52;100771.06;;;17.95;100.00
4449;BME280;2237;51.870;6.160;2023-07-30T01:21:18;100784.50;;;17.90;100.00
4449;BME280;2237;51.870;6.160;2023-07-30T01:23:45;100782.59;;;17.77;100.00
4449;BME280;2237;51.870;6.160;2023-07-30T01:26:16;100786.41;;;17.71;100.00
4449;BME280;2237;51.870;6.160;2023-07-30T01:28:48;100788.00;;;17.74;100.00
4449;BME280;2237;51.870;6.160;2023-07-30T01:31:16;100790.28;;;17.64;100.00
4449;BME280;2237;51.870;6.160;2023-07-30T01:33:46;100784.88;;;17.67;100.00
4449;BME280;2237;51.870;6.160;2023-07-30T01:36:16;100789.13;;;17.70;100.00
4449;BME280;2237;51.870;6.160;2023-07-30T01:38:43;100787.41;;;17.51;100.00
4449;BME280;2237;51.870;6.160;2023-07-30T01:41:10;100796.16;;;17.52;100.00
4449;BME280;2237;51.870;6.160;2023-07-30T01:43:36;100790.66;;;17.57;100.00
4449;BME280;2237;51.870;6.160;2023-07-30T01:46:03;100800.53;;;17.70;100.00
4449;BME280;2237;51.870;6.160;2023-07-30T01:48:29;100794.91;;;17.42;100.00
4449;BME280;2237;51.870;6.160;2023-07-30T01:50:56;100804.94;;;17.35;100.00
4449;BME280;2237;51.870;6.160;2023-07-30T01:53:22;100800.03;;;17.45;100.00
4449;BME280;2237;51.870;6.160;2023-07-30T01:55:48;100806.31;;;17.42;100.00
4449;BME280;2237;51.870;6.160;2023-07-30T01:58:15;100805.84;;;17.34;100.00
4449;BME280;2237;51.870;6.160;2023-07-30T02:00:41;100801.28;;;17.38;100.00
4449;BME280;2237;51.870;6.160;2023-07-30T02:03:08;100807.88;;;17.29;100.00
4449;BME280;2237;51.870;6.160;2023-07-30T02:05:34;100808.69;;;17.13;100.00
4449;BME280;2237;51.870;6.160;2023-07-30T02:08:01;100800.16;;;17.08;100.00
4449;BME280;2237;51.870;6.160;2023-07-30T02:10:27;100804.88;;;17.01;100.00
4449;BME280;2237;51.870;6.160;2023-07-30T02:12:54;100803.63;;;16.91;100.00
4449;BME280;2237;51.870;6.160;2023-07-30T02:15:20;100792.97;;;16.94;100.00
4449;BME280;2237;51.870;6.160;2023-07-30T02:17:46;100798.59;;;17.04;100.00
4449;BME280;2237;51.870;6.160;2023-07-30T02:20:13;100796.22;;;16.99;100.00
4449;BME280;2237;51.870;6.160;2023-07-30T02:22:39;100789.63;;;16.90;100.00
4449;BME280;2237;51.870;6.160;2023-07-30T02:25:06;100798.53;;;16.88;100.00
4449;BME280;2237;51.870;6.160;2023-07-30T02:27:32;100800.84;;;16.94;100.00
4449;BME280;2237;51.870;6.160;2023-07-30T02:29:59;100800.00;;;16.93;100.00
4449;BME280;2237;51.870;6.160;2023-07-30T02:32:25;100802.06;;;16.87;100.00
4449;BME280;2237;51.870;6.160;2023-07-30T02:34:52;100802.16;;;16.85;100.00
4449;BME280;2237;51.870;6.160;2023-07-30T02:37:18;100802.06;;;16.87;100.00
4449;BME280;2237;51.870;6.160;2023-07-30T02:39:44;100793.25;;;16.88;100.00
4449;BME280;2237;51.870;6.160;2023-07-30T02:42:11;100799.91;;;16.95;100.00
4449;BME280;2237;51.870;6.160;2023-07-30T02:44:37;100799.00;;;16.96;100.00
4449;BME280;2237;51.870;6.160;2023-07-30T02:47:04;100794.13;;;17.06;100.00
4449;BME280;2237;51.870;6.160;2023-07-30T02:49:30;100786.44;;;17.01;100.00
4449;BME280;2237;51.870;6.160;2023-07-30T02:51:57;100799.91;;;16.95;100.00
4449;BME280;2237;51.870;6.160;2023-07-30T02:54:23;100797.41;;;16.92;100.00
4449;BME280;2237;51.870;6.160;2023-07-30T02:56:50;100796.44;;;16.94;100.00
4449;BME280;2237;51.870;6.160;2023-07-30T02:59:16;100796.03;;;16.85;100.00
4449;BME280;2237;51.870;6.160;2023-07-30T03:01:42;100797.25;;;16.78;100.00
4449;BME280;2237;51.870;6.160;2023-07-30T03:04:10;100788.16;;;16.85;100.00
4449;BME280;2237;51.870;6.160;2023-07-30T03:06:36;100798.38;;;16.91;100.00
4449;BME280;2237;51.870;6.160;2023-07-30T03:09:03;100792.66;;;17.00;100.00
4449;BME280;2237;51.870;6.160;2023-07-30T03:11:29;100791.41;;;17.07;100.00
4449;BME280;2237;51.870;6.160;2023-07-30T03:13:55;100798.38;;;16.91;100.00
4449;BME280;2237;51.870;6.160;2023-07-30T03:16:22;100795.66;;;16.92;100.00
4449;BME280;2237;51.870;6.160;2023-07-30T03:18:48;100795.88;;;16.88;100.00
4449;BME280;2237;51.870;6.160;2023-07-30T03:21:14;100792.94;;;16.77;100.00
4449;BME280;2237;51.870;6.160;2023-07-30T03:23:41;100791.31;;;16.74;100.00
4449;BME280;2237;51.870;6.160;2023-07-30T03:26:11;100800.81;;;16.77;100.00
4449;BME280;2237;51.870;6.160;2023-07-30T03:28:37;100798.66;;;16.85;100.00
4449;BME280;2237;51.870;6.160;2023-07-30T03:31:06;100802.22;;;16.84;100.00
4449;BME280;2237;51.870;6.160;2023-07-30T03:33:32;100803.06;;;16.84;100.00
4449;BME280;2237;51.870;6.160;2023-07-30T03:35:59;100794.56;;;16.79;100.00
4449;BME280;2237;51.870;6.160;2023-07-30T03:38:26;100794.47;;;16.81;100.00
4449;BME280;2237;51.870;6.160;2023-07-30T03:40:52;100793.84;;;16.76;100.00
4449;BME280;2237;51.870;6.160;2023-07-30T03:43:19;100792.94;;;16.77;100.00
4449;BME280;2237;51.870;6.160;2023-07-30T03:45:45;100795.56;;;16.77;100.00
4449;BME280;2237;51.870;6.160;2023-07-30T03:48:12;100796.25;;;16.80;100.00
4449;BME280;2237;51.870;6.160;2023-07-30T03:50:38;100796.56;;;16.74;100.00
4449;BME280;2237;51.870;6.160;2023-07-30T03:53:04;100803.31;;;16.80;100.00
4449;BME280;2237;51.870;6.160;2023-07-30T03:55:31;100800.88;;;16.75;100.00
4449;BME280;2237;51.870;6.160;2023-07-30T03:57:58;100803.22;;;16.81;100.00
4449;BME280;2237;51.870;6.160;2023-07-30T04:00:24;100806.47;;;16.86;100.00
4449;BME280;2237;51.870;6.160;2023-07-30T04:02:51;100814.41;;;16.68;100.00
4449;BME280;2237;51.870;6.160;2023-07-30T04:05:17;100812.13;;;16.79;100.00
4449;BME280;2237;51.870;6.160;2023-07-30T04:07:44;100816.31;;;16.83;100.00
4449;BME280;2237;51.870;6.160;2023-07-30T04:10:10;100820.19;;;16.93;100.00
4449;BME280;2237;51.870;6.160;2023-07-30T04:12:37;100818.13;;;16.81;100.00
4449;BME280;2237;51.870;6.160;2023-07-30T04:15:03;100827.16;;;16.94;100.00
4449;BME280;2237;51.870;6.160;2023-07-30T04:17:30;100820.94;;;16.95;100.00
4449;BME280;2237;51.870;6.160;2023-07-30T04:19:57;100818.13;;;17.00;100.00
4449;BME280;2237;51.870;6.160;2023-07-30T04:22:23;100830.75;;;17.10;100.00
4449;BME280;2237;51.870;6.160;2023-07-30T04:24:49;100830.44;;;17.16;100.00
4449;BME280;2237;51.870;6.160;2023-07-30T04:27:16;100836.53;;;17.00;100.00
4449;BME280;2237;51.870;6.160;2023-07-30T04:29:42;100827.72;;;17.01;100.00
4449;BME280;2237;51.870;6.160;2023-07-30T04:32:09;100834.47;;;17.06;100.00
4449;BME280;2237;51.870;6.160;2023-07-30T04:34:35;100843.03;;;17.10;100.00
4449;BME280;2237;51.870;6.160;2023-07-30T04:37:02;100838.47;;;17.13;100.00
4449;BME280;2237;51.870;6.160;2023-07-30T04:39:30;100842.41;;;17.05;100.00
4449;BME280;2237;51.870;6.160;2023-07-30T04:41:58;100839.03;;;17.03;100.00
4449;BME280;2237;51.870;6.160;2023-07-30T04:44:24;100834.78;;;17.17;100.00
4449;BME280;2237;51.870;6.160;2023-07-30T04:46:50;100843.16;;;17.25;100.00
4449;BME280;2237;51.870;6.160;2023-07-30T04:49:17;100849.78;;;17.15;100.00
4449;BME280;2237;51.870;6.160;2023-07-30T04:51:43;100849.03;;;17.30;100.00
4449;BME280;2237;51.870;6.160;2023-07-30T04:54:10;100847.03;;;17.35;100.00
4449;BME280;2237;51.870;6.160;2023-07-30T04:56:36;100843.41;;;17.38;100.00
4449;BME280;2237;51.870;6.160;2023-07-30T04:59:03;100855.56;;;17.40;100.00
4449;BME280;2237;51.870;6.160;2023-07-30T05:01:29;100851.00;;;17.44;100.00
4449;BME280;2237;51.870;6.160;2023-07-30T05:03:57;100860.72;;;17.42;100.00
4449;BME280;2237;51.870;6.160;2023-07-30T05:06:23;100857.09;;;17.44;100.00
4449;BME280;2237;51.870;6.160;2023-07-30T05:08:50;100857.56;;;17.35;100.00
4449;BME280;2237;51.870;6.160;2023-07-30T05:11:16;100860.66;;;17.43;100.00
4449;BME280;2237;51.870;6.160;2023-07-30T05:13:43;100858.06;;;17.61;100.00
4449;BME280;2237;51.870;6.160;2023-07-30T05:16:09;100857.75;;;17.67;100.00
4449;BME280;2237;51.870;6.160;2023-07-30T05:18:36;100866.03;;;17.59;100.00
4449;BME280;2237;51.870;6.160;2023-07-30T05:21:02;100865.22;;;17.59;100.00
4449;BME280;2237;51.870;6.160;2023-07-30T05:23:28;100852.03;;;17.76;100.00
4449;BME280;2237;51.870;6.160;2023-07-30T05:25:55;100854.13;;;17.69;100.00
4449;BME280;2237;51.870;6.160;2023-07-30T05:28:21;100858.47;;;17.70;100.00
4449;BME280;2237;51.870;6.160;2023-07-30T05:30:48;100856.81;;;17.68;100.00
4449;BME280;2237;51.870;6.160;2023-07-30T05:33:14;100862.25;;;17.82;100.00
4449;BME280;2237;51.870;6.160;2023-07-30T05:35:40;100853.78;;;17.92;100.00
4449;BME280;2237;51.870;6.160;2023-07-30T05:38:07;100855.53;;;18.09;100.00
4449;BME280;2237;51.870;6.160;2023-07-30T05:40:34;100854.56;;;18.27;100.00
4449;BME280;2237;51.870;6.160;2023-07-30T05:43:04;100860.72;;;18.11;100.00
4449;BME280;2237;51.870;6.160;2023-07-30T05:45:30;100857.88;;;17.98;100.00
4449;BME280;2237;51.870;6.160;2023-07-30T05:47:57;100870.34;;;17.94;100.00
4449;BME280;2237;51.870;6.160;2023-07-30T05:50:23;100881.00;;;17.93;100.00
4449;BME280;2237;51.870;6.160;2023-07-30T05:52:49;100874.31;;;17.86;100.00
4449;BME280;2237;51.870;6.160;2023-07-30T05:55:16;100860.69;;;17.78;100.00
4449;BME280;2237;51.870;6.160;2023-07-30T05:57:42;100866.22;;;18.06;100.00
4449;BME280;2237;51.870;6.160;2023-07-30T06:00:09;100857.72;;;18.34;100.00
4449;BME280;2237;51.870;6.160;2023-07-30T06:02:35;100855.81;;;18.53;100.00
4449;BME280;2237;51.870;6.160;2023-07-30T06:05:02;100862.56;;;18.74;100.00
4449;BME280;2237;51.870;6.160;2023-07-30T06:07:29;100863.66;;;18.70;100.00
4449;BME280;2237;51.870;6.160;2023-07-30T06:09:55;100864.00;;;18.80;100.00
4449;BME280;2237;51.870;6.160;2023-07-30T06:12:21;100864.09;;;18.63;100.00
4449;BME280;2237;51.870;6.160;2023-07-30T06:14:48;100866.56;;;18.33;100.00
4449;BME280;2237;51.870;6.160;2023-07-30T06:17:14;100871.25;;;18.43;100.00
4449;BME280;2237;51.870;6.160;2023-07-30T06:19:41;100858.44;;;18.53;100.00
4449;BME280;2237;51.870;6.160;2023-07-30T06:22:07;100870.16;;;18.47;100.00
4449;BME280;2237;51.870;6.160;2023-07-30T06:24:33;100871.47;;;18.56;100.00
4449;BME280;2237;51.870;6.160;2023-07-30T06:27:01;100868.53;;;18.78;100.00
4449;BME280;2237;51.870;6.160;2023-07-30T06:29:27;100871.16;;;18.78;100.00
4449;BME280;2237;51.870;6.160;2023-07-30T06:31:54;100873.34;;;18.70;100.00
4449;BME280;2237;51.870;6.160;2023-07-30T06:34:20;100872.31;;;18.72;100.00
4449;BME280;2237;51.870;6.160;2023-07-30T06:36:47;100877.44;;;18.59;100.00
4449;BME280;2237;51.870;6.160;2023-07-30T06:39:13;100872.31;;;18.72;100.00
4449;BME280;2237;51.870;6.160;2023-07-30T06:41:40;100868.41;;;18.63;100.00
4449;BME280;2237;51.870;6.160;2023-07-30T06:44:06;100873.38;;;18.85;100.00
4449;BME280;2237;51.870;6.160;2023-07-30T06:46:33;100864.69;;;18.83;100.00
4449;BME280;2237;51.870;6.160;2023-07-30T06:48:59;100866.53;;;18.97;100.00
4449;BME280;2237;51.870;6.160;2023-07-30T06:51:26;100866.34;;;19.15;100.00
4449;BME280;2237;51.870;6.160;2023-07-30T06:53:53;100863.63;;;19.17;100.00
4449;BME280;2237;51.870;6.160;2023-07-30T06:56:19;100868.50;;;19.09;100.00
4449;BME280;2237;51.870;6.160;2023-07-30T06:58:46;100871.88;;;19.27;100.00
4449;BME280;2237;51.870;6.160;2023-07-30T07:01:12;100873.50;;;19.13;100.00
4449;BME280;2237;51.870;6.160;2023-07-30T07:03:39;100872.56;;;19.14;100.00
4449;BME280;2237;51.870;6.160;2023-07-30T07:06:05;100875.97;;;19.32;100.00
4449;BME280;2237;51.870;6.160;2023-07-30T07:08:32;100875.13;;;19.47;100.00
4449;BME280;2237;51.870;6.160;2023-07-30T07:10:58;100875.00;;;19.33;100.00
4449;BME280;2237;51.870;6.160;2023-07-30T07:13:25;100868.19;;;19.45;100.00
4449;BME280;2237;51.870;6.160;2023-07-30T07:15:51;100874.66;;;19.55;100.00
4449;BME280;2237;51.870;6.160;2023-07-30T07:18:18;100877.53;;;19.50;100.00
4449;BME280;2237;51.870;6.160;2023-07-30T07:20:45;100873.63;;;19.57;100.00
4449;BME280;2237;51.870;6.160;2023-07-30T07:23:11;100878.09;;;19.85;100.00
4449;BME280;2237;51.870;6.160;2023-07-30T07:25:39;100873.13;;;19.95;100.00
4449;BME280;2237;51.870;6.160;2023-07-30T07:28:06;100875.22;;;19.90;100.00
4449;BME280;2237;51.870;6.160;2023-07-30T07:30:35;100882.09;;;19.92;100.00
4449;BME280;2237;51.870;6.160;2023-07-30T07:33:02;100876.06;;;20.04;100.00
4449;BME280;2237;51.870;6.160;2023-07-30T07:35:29;100879.59;;;20.19;100.00
4449;BME280;2237;51.870;6.160;2023-07-30T07:37:56;100861.34;;;20.14;100.00
4449;BME280;2237;51.870;6.160;2023-07-30T07:40:23;100869.22;;;20.30;100.00
4449;BME280;2237;51.870;6.160;2023-07-30T07:42:50;100869.75;;;20.49;100.00
4449;BME280;2237;51.870;6.160;2023-07-30T07:45:16;100875.19;;;20.34;100.00
4449;BME280;2237;51.870;6.160;2023-07-30T07:47:45;100875.63;;;20.26;100.00
4449;BME280;2237;51.870;6.160;2023-07-30T07:50:12;100876.09;;;20.18;100.00
4449;BME280;2237;51.870;6.160;2023-07-30T07:52:38;100874.81;;;20.25;100.00
4449;BME280;2237;51.870;6.160;2023-07-30T07:55:05;100878.63;;;20.20;100.00
4449;BME280;2237;51.870;6.160;2023-07-30T07:57:31;100889.59;;;20.14;100.00
4449;BME280;2237;51.870;6.160;2023-07-30T07:59:58;100887.19;;;20.25;100.00
4449;BME280;2237;51.870;6.160;2023-07-30T08:02:24;100893.97;;;20.29;100.00
4449;BME280;2237;51.870;6.160;2023-07-30T08:04:51;100883.59;;;20.40;100.00
4449;BME280;2237;51.870;6.160;2023-07-30T08:07:17;100887.06;;;20.69;100.00
4449;BME280;2237;51.870;6.160;2023-07-30T08:09:44;100889.25;;;21.03;100.00
4449;BME280;2237;51.870;6.160;2023-07-30T08:12:10;100886.44;;;21.33;100.00
4449;BME280;2237;51.870;6.160;2023-07-30T08:14:38;100887.66;;;21.54;100.00
4449;BME280;2237;51.870;6.160;2023-07-30T08:17:05;100892.53;;;21.60;100.00
4449;BME280;2237;51.870;6.160;2023-07-30T08:19:31;100889.69;;;21.63;100.00
4449;BME280;2237;51.870;6.160;2023-07-30T08:21:58;100891.06;;;21.56;100.00
4449;BME280;2237;51.870;6.160;2023-07-30T08:24:25;100886.00;;;21.39;100.00
4449;BME280;2237;51.870;6.160;2023-07-30T08:26:51;100897.13;;;21.31;100.00
4449;BME280;2237;51.870;6.160;2023-07-30T08:29:17;100888.91;;;21.49;100.00
4449;BME280;2237;51.870;6.160;2023-07-30T08:31:44;100892.34;;;21.63;100.00
4449;BME280;2237;51.870;6.160;2023-07-30T08:34:10;100885.53;;;21.47;100.00
4449;BME280;2237;51.870;6.160;2023-07-30T08:36:37;100880.03;;;21.23;100.00
4449;BME280;2237;51.870;6.160;2023-07-30T08:39:04;100882.34;;;21.01;100.00
4449;BME280;2237;51.870;6.160;2023-07-30T08:41:31;100892.56;;;20.93;100.00
4449;BME280;2237;51.870;6.160;2023-07-30T08:43:58;100880.97;;;21.22;100.00
4449;BME280;2237;51.870;6.160;2023-07-30T08:46:25;100883.38;;;21.39;100.00
4449;BME280;2237;51.870;6.160;2023-07-30T08:48:51;100883.44;;;21.64;100.00
4449;BME280;2237;51.870;6.160;2023-07-30T08:51:19;100888.47;;;21.81;100.00
4449;BME280;2237;51.870;6.160;2023-07-30T08:53:46;100885.13;;;22.17;100.00
4449;BME280;2237;51.870;6.160;2023-07-30T08:56:13;100883.41;;;22.16;100.00
4449;BME280;2237;51.870;6.160;2023-07-30T08:58:41;100884.56;;;22.12;100.00
4449;BME280;2237;51.870;6.160;2023-07-30T09:01:09;100889.78;;;22.14;100.00
4449;BME280;2237;51.870;6.160;2023-07-30T09:03:40;100886.09;;;21.77;100.00
4449;BME280;2237;51.870;6.160;2023-07-30T09:06:07;100899.53;;;21.88;100.00
4449;BME280;2237;51.870;6.160;2023-07-30T09:08:34;100897.25;;;21.82;100.00
4449;BME280;2237;51.870;6.160;2023-07-30T09:11:10;100880.97;;;22.01;100.00
4449;BME280;2237;51.870;6.160;2023-07-30T09:13:38;100897.50;;;21.91;100.00
4449;BME280;2237;51.870;6.160;2023-07-30T09:16:12;100881.16;;;21.98;100.00
4449;BME280;2237;51.870;6.160;2023-07-30T09:18:40;100885.41;;;22.00;100.00
4449;BME280;2237;51.870;6.160;2023-07-30T09:21:07;100886.28;;;21.88;100.00
4449;BME280;2237;51.870;6.160;2023-07-30T09:23:39;100901.56;;;22.10;100.00
4449;BME280;2237;51.870;6.160;2023-07-30T09:26:06;100903.56;;;21.93;100.00
4449;BME280;2237;51.870;6.160;2023-07-30T09:28:33;100906.91;;;21.70;100.00
4449;BME280;2237;51.870;6.160;2023-07-30T09:31:04;100905.50;;;21.77;100.00
4449;BME280;2237;51.870;6.160;2023-07-30T09:33:47;100900.66;;;21.84;100.00
4449;BME280;2237;51.870;6.160;2023-07-30T09:36:15;100906.19;;;21.42;100.00
4449;BME280;2237;51.870;6.160;2023-07-30T09:38:42;100910.56;;;21.94;100.00
4449;BME280;2237;51.870;6.160;2023-07-30T09:41:11;100902.75;;;22.06;100.00
4449;BME280;2237;51.870;6.160;2023-07-30T09:43:38;100907.72;;;22.23;100.00
4449;BME280;2237;51.870;6.160;2023-07-30T09:46:06;100920.22;;;21.56;100.00
4449;BME280;2237;51.870;6.160;2023-07-30T09:48:34;100908.25;;;21.63;100.00
4449;BME280;2237;51.870;6.160;2023-07-30T09:51:04;100921.97;;;21.82;100.00
4449;BME280;2237;51.870;6.160;2023-07-30T09:53:33;100910.03;;;21.89;100.00
4449;BME280;2237;51.870;6.160;2023-07-30T09:56:02;100914.41;;;22.16;100.00
4449;BME280;2237;51.870;6.160;2023-07-30T09:58:30;100904.44;;;22.19;100.00
4449;BME280;2237;51.870;6.160;2023-07-30T10:01:00;100898.78;;;22.36;100.00
4449;BME280;2237;51.870;6.160;2023-07-30T10:03:27;100904.41;;;22.70;100.00
4449;BME280;2237;51.870;6.160;2023-07-30T10:06:02;100911.09;;;22.63;100.00
4449;BME280;2237;51.870;6.160;2023-07-30T10:08:31;100912.09;;;22.98;99.64
4449;BME280;2237;51.870;6.160;2023-07-30T10:11:00;100908.00;;;23.18;100.00
4449;BME280;2237;51.870;6.160;2023-07-30T10:13:30;100909.97;;;22.90;100.00
4449;BME280;2237;51.870;6.160;2023-07-30T10:15:57;100912.47;;;22.68;100.00
4449;BME280;2237;51.870;6.160;2023-07-30T10:18:41;100918.63;;;22.43;100.00
4449;BME280;2237;51.870;6.160;2023-07-30T10:21:09;100910.78;;;22.04;100.00
4449;BME280;2237;51.870;6.160;2023-07-30T10:23:46;100926.66;;;21.91;100.00
4449;BME280;2237;51.870;6.160;2023-07-30T10:26:13;100933.03;;;21.62;100.00
4449;BME280;2237;51.870;6.160;2023-07-30T10:28:39;100932.34;;;21.73;100.00
4449;BME280;2237;51.870;6.160;2023-07-30T10:31:09;100943.28;;;21.42;100.00
4449;BME280;2237;51.870;6.160;2023-07-30T10:33:56;100928.97;;;21.44;100.00
4449;BME280;2237;51.870;6.160;2023-07-30T10:36:34;100928.47;;;21.52;100.00
4449;BME280;2237;51.870;6.160;2023-07-30T10:39:32;100941.88;;;21.36;100.00
4449;BME280;2237;51.870;6.160;2023-07-30T10:42:00;100960.31;;;21.37;100.00
4449;BME280;2237;51.870;6.160;2023-07-30T10:44:33;100955.63;;;21.55;100.00
4449;BME280;2237;51.870;6.160;2023-07-30T10:47:01;100958.25;;;21.28;100.00
4449;BME280;2237;51.870;6.160;2023-07-30T10:49:28;100963.66;;;20.99;100.00
4449;BME280;2237;51.870;6.160;2023-07-30T10:51:56;100979.31;;;20.89;100.00
4449;BME280;2237;51.870;6.160;2023-07-30T10:54:23;100967.28;;;20.69;100.00
4449;BME280;2237;51.870;6.160;2023-07-30T10:56:51;100967.09;;;21.01;100.00
4449;BME280;2237;51.870;6.160;2023-07-30T10:59:19;100959.63;;;21.21;100.00
4449;BME280;2237;51.870;6.160;2023-07-30T11:01:45;100957.13;;;21.59;100.00
4449;BME280;2237;51.870;6.160;2023-07-30T11:04:13;100968.06;;;22.07;100.00
4449;BME280;2237;51.870;6.160;2023-07-30T11:06:45;100968.81;;;22.09;100.00
4449;BME280;2237;51.870;6.160;2023-07-30T11:09:38;100972.47;;;22.45;100.00
4449;BME280;2237;51.870;6.160;2023-07-30T11:12:08;100989.34;;;22.19;100.00
4449;BME280;2237;51.870;6.160;2023-07-30T11:14:35;100976.56;;;21.72;100.00
4449;BME280;2237;51.870;6.160;2023-07-30T11:17:02;100973.78;;;21.61;100.00
4449;BME280;2237;51.870;6.160;2023-07-30T11:19:29;100963.41;;;22.10;100.00
4449;BME280;2237;51.870;6.160;2023-07-30T11:21:57;100969.16;;;22.17;100.00
4449;BME280;2237;51.870;6.160;2023-07-30T11:24:34;100976.34;;;21.75;100.00
4449;BME280;2237;51.870;6.160;2023-07-30T11:27:01;100980.31;;;22.22;100.00
4449;BME280;2237;51.870;6.160;2023-07-30T11:29:28;100979.09;;;21.74;100.00
4449;BME280;2237;51.870;6.160;2023-07-30T11:31:59;100974.81;;;21.32;100.00
4449;BME280;2237;51.870;6.160;2023-07-30T11:34:27;100975.69;;;21.45;100.00
4449;BME280;2237;51.870;6.160;2023-07-30T11:36:54;100971.13;;;21.34;100.00
4449;BME280;2237;51.870;6.160;2023-07-30T11:39:23;100977.16;;;21.36;100.00
4449;BME280;2237;51.870;6.160;2023-07-30T11:41:50;100971.25;;;21.46;100.00
4449;BME280;2237;51.870;6.160;2023-07-30T11:44:30;100980.72;;;21.50;100.00
4449;BME280;2237;51.870;6.160;2023-07-30T11:46:57;100970.13;;;21.50;100.00
4449;BME280;2237;51.870;6.160;2023-07-30T11:49:24;100965.09;;;21.45;100.00
4449;BME280;2237;51.870;6.160;2023-07-30T11:51:50;100977.63;;;21.70;100.00
4449;BME280;2237;51.870;6.160;2023-07-30T11:54:19;100964.16;;;21.73;100.00
4449;BME280;2237;51.870;6.160;2023-07-30T11:56:46;100977.25;;;21.88;100.00
4449;BME280;2237;51.870;6.160;2023-07-30T11:59:13;100978.00;;;22.42;100.00
4449;BME280;2237;51.870;6.160;2023-07-30T12:01:42;100984.31;;;23.16;98.58
4449;BME280;2237;51.870;6.160;2023-07-30T12:04:08;100990.22;;;22.70;99.35
4449;BME280;2237;51.870;6.160;2023-07-30T12:06:45;100986.47;;;22.35;100.00
4449;BME280;2237;51.870;6.160;2023-07-30T12:09:20;100985.00;;;22.31;100.00
4449;BME280;2237;51.870;6.160;2023-07-30T12:14:21;100993.91;;;22.30;100.00
4449;BME280;2237;51.870;6.160;2023-07-30T12:16:48;100984.66;;;22.35;100.00
4449;BME280;2237;51.870;6.160;2023-07-30T12:19:15;100990.28;;;22.56;98.21
4449;BME280;2237;51.870;6.160;2023-07-30T12:21:41;100993.94;;;22.68;93.01
4449;BME280;2237;51.870;6.160;2023-07-30T12:24:08;100989.66;;;23.03;92.47
4449;BME280;2237;51.870;6.160;2023-07-30T12:26:35;101004.72;;;23.15;90.62
4449;BME280;2237;51.870;6.160;2023-07-30T12:29:01;100997.91;;;23.11;91.38
4449;BME280;2237;51.870;6.160;2023-07-30T12:31:27;100996.66;;;23.53;85.97
4449;BME280;2237;51.870;6.160;2023-07-30T12:33:55;100986.03;;;23.53;85.56
4449;BME280;2237;51.870;6.160;2023-07-30T12:36:21;100995.75;;;23.65;88.14
4449;BME280;2237;51.870;6.160;2023-07-30T12:38:47;100981.28;;;23.80;86.60
4449;BME280;2237;51.870;6.160;2023-07-30T12:41:14;100989.69;;;24.22;85.03
4449;BME280;2237;51.870;6.160;2023-07-30T12:43:40;100981.16;;;24.05;85.16
4449;BME280;2237;51.870;6.160;2023-07-30T12:46:07;100986.13;;;23.75;83.07
4449;BME280;2237;51.870;6.160;2023-07-30T12:48:33;100986.34;;;23.48;79.68
4449;BME280;2237;51.870;6.160;2023-07-30T12:51:00;100989.53;;;23.53;79.26
4449;BME280;2237;51.870;6.160;2023-07-30T12:53:26;100982.91;;;23.83;70.80
4449;BME280;2237;51.870;6.160;2023-07-30T12:55:53;100974.44;;;24.12;69.64
4449;BME280;2237;51.870;6.160;2023-07-30T12:58:19;100979.91;;;23.98;70.27
4449;BME280;2237;51.870;6.160;2023-07-30T13:00:45;100983.72;;;23.83;65.52
4449;BME280;2237;51.870;6.160;2023-07-30T13:03:12;100990.09;;;24.04;67.14